Time;durP1;ratioP1;P1;durP2;ratioP2;P2;SDS_P1;SDS_P2;PMS_P1;PMS_P2;Temp;Humidity;BMP_temperature;BMP_pressure;BME280_temperature;BME280_humidity;BME280_pressure;Samples;Min_cycle;Max_cycle;Signal;HPM_P1;HPM_P2
2021/05/02 00:00:41;;;;;;;10.57;5.33;;;;;;;;;;10160789;28;20055;-64
2021/05/02 00:05:38;;;;;;;8.67;4.43;;;;;;;;;;10160749;28;20074;-65
2021/05/02 00:10:36;;;;;;;5.60;3.57;;;;;;;;;;10143872;28;20035;-66
2021/05/02 00:15:33;;;;;;;8.33;4.70;;;;;;;;;;10161010;28;20066;-66
2021/05/02 00:20:31;;;;;;;6.27;4.57;;;;;;;;;;10159029;28;20034;-66
2021/05/02 00:25:32;;;;;;;6.67;4.67;;;;;;;;;;10146751;28;20505;-67
2021/05/02 00:30:30;;;;;;;6.50;4.00;;;;;;;;;;10153915;28;20038;-69
2021/05/02 00:35:28;;;;;;;6.80;4.13;;;;;;;;;;10171024;28;20031;-67
2021/05/02 00:40:30;;;;;;;6.63;4.50;;;;;;;;;;10162832;28;20035;-67
2021/05/02 00:45:34;;;;;;;8.05;5.30;;;;;;;;;;10164530;28;20053;-66
2021/05/02 00:50:33;;;;;;;8.93;4.68;;;;;;;;;;10157160;28;20035;-68
2021/05/02 00:55:37;;;;;;;7.80;4.18;;;;;;;;;;10158959;28;20043;-68
2021/05/02 01:00:37;;;;;;;10.60;5.72;;;;;;;;;;10168302;28;20559;-70
2021/05/02 01:05:34;;;;;;;5.78;3.00;;;;;;;;;;10166914;28;20041;-68
2021/05/02 01:10:32;;;;;;;10.77;6.33;;;;;;;;;;10166582;28;20050;-70
2021/05/02 01:15:32;;;;;;;6.20;3.17;;;;;;;;;;10166792;28;20138;-66
2021/05/02 01:20:30;;;;;;;12.13;7.35;;;;;;;;;;10159320;28;20086;-66
2021/05/02 01:25:27;;;;;;;;;;;;;;;;;;10166879;28;20039;-67
2021/05/02 01:30:27;;;;;;;8.70;4.72;;;;;;;;;;10166392;28;19914;-63
2021/05/02 01:35:24;;;;;;;1.48;1.25;;;;;;;;;;10163419;28;20088;-65
2021/05/02 01:40:22;;;;;;;12.83;4.30;;;;;;;;;;10172297;28;20473;-67
2021/05/02 01:45:19;;;;;;;9.50;6.00;;;;;;;;;;10156465;28;20038;-66
2021/05/02 01:50:17;;;;;;;11.87;6.23;;;;;;;;;;10153336;28;20038;-65
2021/05/02 01:55:16;;;;;;;11.23;6.40;;;;;;;;;;10141905;28;20508;-66
2021/05/02 02:00:13;;;;;;;;;;;;;;;;;;10149760;28;20492;-67
2021/05/02 02:05:13;;;;;;;9.27;5.97;;;;;;;;;;10173061;28;19972;-65
2021/05/02 02:10:10;;;;;;;8.40;4.88;;;;;;;;;;10166073;28;20412;-66
2021/05/02 02:15:08;;;;;;;15.77;6.93;;;;;;;;;;10136921;28;20038;-65
2021/05/02 02:20:06;;;;;;;9.45;5.97;;;;;;;;;;10161668;28;20031;-65
2021/05/02 02:25:04;;;;;;;9.53;5.40;;;;;;;;;;10164535;28;20039;-66
2021/05/02 02:30:06;;;;;;;9.23;5.77;;;;;;;;;;10165670;28;20448;-65
2021/05/02 02:35:04;;;;;;;12.65;5.88;;;;;;;;;;10165558;28;20399;-68
2021/05/02 02:40:04;;;;;;;9.70;6.03;;;;;;;;;;10143669;28;20041;-63
2021/05/02 02:45:05;;;;;;;6.93;4.50;;;;;;;;;;10160335;28;20493;-65
2021/05/02 02:50:07;;;;;;;7.82;5.38;;;;;;;;;;10163104;28;20039;-66
2021/05/02 02:55:06;;;;;;;5.60;2.92;;;;;;;;;;10152397;28;20064;-65
2021/05/02 03:00:03;;;;;;;;;;;;;;;;;;10159155;28;20508;-66
2021/05/02 03:05:01;;;;;;;4.90;3.40;;;;;;;;;;10153065;28;19915;-67
2021/05/02 03:09:59;;;;;;;6.97;3.65;;;;;;;;;;10173790;28;20042;-66
2021/05/02 03:14:56;;;;;;;7.37;4.60;;;;;;;;;;10159768;28;20039;-66
2021/05/02 03:19:58;;;;;;;9.10;3.93;;;;;;;;;;10162426;28;20049;-66
2021/05/02 03:24:59;;;;;;;8.20;4.35;;;;;;;;;;10173096;28;20058;-64
2021/05/02 03:29:58;;;;;;;32.17;11.02;;;;;;;;;;10168945;28;20042;-65
2021/05/02 03:34:56;;;;;;;11.23;4.90;;;;;;;;;;10176984;28;20035;-66
2021/05/02 03:39:54;;;;;;;2.63;0.98;;;;;;;;;;10147160;28;20440;-66
2021/05/02 03:44:51;;;;;;;1.53;1.40;;;;;;;;;;10163518;28;20042;-66
2021/05/02 03:49:48;;;;;;;0.70;0.70;;;;;;;;;;10170038;28;20065;-67
2021/05/02 03:54:50;;;;;;;1.27;0.93;;;;;;;;;;10151921;28;20035;-67
2021/05/02 03:59:47;;;;;;;1.17;0.80;;;;;;;;;;10177330;28;20133;-66
2021/05/02 04:04:45;;;;;;;1.40;1.27;;;;;;;;;;10172109;28;20089;-65
2021/05/02 04:09:46;;;;;;;1.17;1.08;;;;;;;;;;10175656;28;20518;-68
2021/05/02 04:14:44;;;;;;;3.15;1.83;;;;;;;;;;10171684;28;20133;-66
2021/05/02 04:19:45;;;;;;;2.03;1.13;;;;;;;;;;10172776;28;20657;-66
2021/05/02 04:24:43;;;;;;;7.45;4.20;;;;;;;;;;10164851;28;20102;-66
2021/05/02 04:29:41;;;;;;;7.00;4.37;;;;;;;;;;10156056;28;20035;-66
2021/05/02 04:34:38;;;;;;;6.33;3.77;;;;;;;;;;10170946;28;20039;-66
2021/05/02 04:39:35;;;;;;;6.93;3.90;;;;;;;;;;10170171;28;20066;-66
2021/05/02 04:44:33;;;;;;;7.83;4.57;;;;;;;;;;10168229;28;20039;-67
2021/05/02 04:49:30;;;;;;;8.83;4.20;;;;;;;;;;10170678;28;20039;-68
2021/05/02 04:54:28;;;;;;;5.03;4.00;;;;;;;;;;10152536;28;20034;-67
2021/05/02 04:59:25;;;;;;;7.60;5.27;;;;;;;;;;10165464;28;20093;-67
2021/05/02 05:04:23;;;;;;;9.03;4.10;;;;;;;;;;10167433;28;20500;-66
2021/05/02 05:09:20;;;;;;;5.87;3.90;;;;;;;;;;10171528;28;20496;-65
2021/05/02 05:14:18;;;;;;;6.87;2.60;;;;;;;;;;10169102;28;20027;-68
2021/05/02 05:19:15;;;;;;;4.53;1.93;;;;;;;;;;10172972;28;20090;-66
2021/05/02 05:24:12;;;;;;;2.33;1.83;;;;;;;;;;10163985;28;20041;-64
2021/05/02 05:29:10;;;;;;;6.87;3.13;;;;;;;;;;10135821;28;20399;-66
2021/05/02 05:34:08;;;;;;;3.43;2.67;;;;;;;;;;10170256;28;20026;-67
2021/05/02 05:39:05;;;;;;;3.03;1.73;;;;;;;;;;10138132;28;20483;-65
2021/05/02 05:44:03;;;;;;;2.77;2.40;;;;;;;;;;10157803;28;20106;-66
2021/05/02 05:49:01;;;;;;;4.17;2.90;;;;;;;;;;10165053;28;20031;-66
2021/05/02 05:53:58;;;;;;;4.30;2.97;;;;;;;;;;10149645;28;20042;-66
2021/05/02 05:58:55;;;;;;;7.70;3.23;;;;;;;;;;10145479;28;20035;-66
2021/05/02 06:03:53;;;;;;;4.13;3.10;;;;;;;;;;10139132;28;20142;-66
2021/05/02 06:08:50;;;;;;;5.10;2.93;;;;;;;;;;10113717;28;20051;-65
2021/05/02 06:13:48;;;;;;;5.63;3.37;;;;;;;;;;10110860;28;20532;-64
2021/05/02 06:18:45;;;;;;;1.60;1.50;;;;;;;;;;10116302;28;20579;-66
2021/05/02 06:23:44;;;;;;;3.27;2.10;;;;;;;;;;10126455;28;20039;-66
2021/05/02 06:28:42;;;;;;;4.18;2.60;;;;;;;;;;10117007;28;20121;-67
2021/05/02 06:33:40;;;;;;;2.70;2.47;;;;;;;;;;10159760;28;20031;-67
2021/05/02 06:38:37;;;;;;;2.87;2.23;;;;;;;;;;10162859;28;20554;-66
2021/05/02 06:43:35;;;;;;;4.07;2.87;;;;;;;;;;10155905;28;20129;-68
2021/05/02 06:48:32;;;;;;;3.33;2.80;;;;;;;;;;10163620;28;20034;-67
2021/05/02 06:53:30;;;;;;;4.33;3.43;;;;;;;;;;10161559;28;20543;-66
2021/05/02 06:58:28;;;;;;;4.53;2.97;;;;;;;;;;10155171;28;20991;-67
2021/05/02 07:03:25;;;;;;;1.60;1.07;;;;;;;;;;10160630;28;20474;-67
2021/05/02 07:08:22;;;;;;;4.87;3.37;;;;;;;;;;10157474;28;20026;-67
2021/05/02 07:13:20;;;;;;;3.23;1.93;;;;;;;;;;10162392;28;20019;-67
2021/05/02 07:18:17;;;;;;;3.83;2.10;;;;;;;;;;10142705;28;20579;-66
2021/05/02 07:23:15;;;;;;;3.10;1.85;;;;;;;;;;10137993;28;20023;-63
2021/05/02 07:28:13;;;;;;;1.63;1.33;;;;;;;;;;10162535;28;20057;-64
2021/05/02 07:33:10;;;;;;;4.40;1.67;;;;;;;;;;10162567;28;20492;-65
2021/05/02 07:38:07;;;;;;;1.33;0.73;;;;;;;;;;10167435;28;20039;-64
2021/05/02 07:43:05;;;;;;;2.07;1.37;;;;;;;;;;10167447;28;20085;-65
2021/05/02 07:48:02;;;;;;;2.83;1.17;;;;;;;;;;10162065;28;20069;-66
2021/05/02 07:53:00;;;;;;;0.77;0.70;;;;;;;;;;10147347;28;20051;-67
2021/05/02 07:57:58;;;;;;;0.80;0.77;;;;;;;;;;10159000;28;20043;-66
2021/05/02 08:02:56;;;;;;;3.17;0.80;;;;;;;;;;10155178;28;20034;-66
2021/05/02 08:07:54;;;;;;;;;;;;;;;;;;10142685;28;20042;-66
2021/05/02 08:12:54;;;;;;;0.75;0.75;;;;;;;;;;10142280;28;19914;-65
2021/05/02 08:17:52;;;;;;;0.50;0.40;;;;;;;;;;10155824;28;20051;-66
2021/05/02 08:22:49;;;;;;;4.30;2.20;;;;;;;;;;10157799;28;20052;-66
2021/05/02 08:27:47;;;;;;;1.63;1.37;;;;;;;;;;10143400;28;20436;-65
2021/05/02 08:32:45;;;;;;;5.27;1.80;;;;;;;;;;10146436;28;20043;-65
2021/05/02 08:37:42;;;;;;;1.57;1.37;;;;;;;;;;10151309;28;20040;-65
2021/05/02 08:42:40;;;;;;;7.23;0.80;;;;;;;;;;10148170;28;20458;-67
2021/05/02 08:47:37;;;;;;;1.37;0.90;;;;;;;;;;10143647;28;20065;-66
2021/05/02 08:52:35;;;;;;;3.40;0.90;;;;;;;;;;10146843;28;20039;-66
2021/05/02 08:57:36;;;;;;;2.83;0.90;;;;;;;;;;10140094;28;20047;-67
2021/05/02 09:02:35;;;;;;;0.25;0.25;;;;;;;;;;10159912;28;20046;-65
2021/05/02 09:07:32;;;;;;;;;;;;;;;;;;10161587;28;20039;-66
2021/05/02 09:12:29;;;;;;;0.40;0.40;;;;;;;;;;10149324;28;19918;-67
2021/05/02 09:17:29;;;;;;;0.70;0.50;;;;;;;;;;10145412;28;20460;-65
2021/05/02 09:22:26;;;;;;;3.20;0.60;;;;;;;;;;10146233;28;20050;-66
2021/05/02 09:27:24;;;;;;;0.57;0.57;;;;;;;;;;10143780;28;20615;-66
2021/05/02 09:32:22;;;;;;;3.63;0.53;;;;;;;;;;10165824;28;20059;-68
2021/05/02 09:37:30;;;;;;;1.10;0.60;;;;;;;;;;10152892;28;20060;-65
2021/05/02 09:42:35;;;;;;;1.33;0.55;;;;;;;;;;10167828;28;20049;-66
2021/05/02 09:47:34;;;;;;;0.52;0.52;;;;;;;;;;10161139;28;20576;-66
2021/05/02 09:53:06;;;;;;;3.03;0.73;;;;;;;;;;10172073;28;20034;-67
2021/05/02 09:58:16;;;;;;;4.05;0.80;;;;;;;;;;10147788;28;20050;-65
2021/05/02 10:03:17;;;;;;;1.30;0.75;;;;;;;;;;10150664;28;20126;-66
2021/05/02 10:08:14;;;;;;;1.27;0.40;;;;;;;;;;10149947;28;20027;-64
2021/05/02 10:13:13;;;;;;;1.17;0.47;;;;;;;;;;10145502;28;20046;-64
2021/05/02 10:18:10;;;;;;;0.52;0.52;;;;;;;;;;10170448;28;20042;-67
2021/05/02 10:23:08;;;;;;;0.60;0.40;;;;;;;;;;10167551;28;20034;-65
2021/05/02 10:28:05;;;;;;;2.90;0.63;;;;;;;;;;10145516;28;20038;-66
2021/05/02 10:33:10;;;;;;;2.33;0.70;;;;;;;;;;10147440;28;20034;-67
2021/05/02 10:38:08;;;;;;;0.95;0.52;;;;;;;;;;10160088;28;20057;-66
2021/05/02 10:43:10;;;;;;;1.07;0.70;;;;;;;;;;10146640;28;20027;-66
2021/05/02 10:48:07;;;;;;;1.00;0.85;;;;;;;;;;10165292;28;20508;-67
2021/05/02 10:53:13;;;;;;;1.50;0.67;;;;;;;;;;10161708;28;20061;-66
2021/05/02 10:58:17;;;;;;;0.90;0.30;;;;;;;;;;10162181;28;20038;-68
2021/05/02 11:03:33;;;;;;;0.82;0.80;;;;;;;;;;10160154;28;20023;-67
2021/05/02 11:08:49;;;;;;;1.85;0.50;;;;;;;;;;10154492;28;20034;-65
2021/05/02 11:13:46;;;;;;;0.80;0.63;;;;;;;;;;10157544;28;20394;-66
2021/05/02 11:18:51;;;;;;;4.97;0.40;;;;;;;;;;10154486;28;20039;-65
2021/05/02 11:23:54;;;;;;;2.53;0.80;;;;;;;;;;10145452;28;20400;-67
2021/05/02 11:29:07;;;;;;;0.93;0.40;;;;;;;;;;10153133;28;20036;-65
2021/05/02 11:34:05;;;;;;;0.38;0.38;;;;;;;;;;10149567;28;20058;-65
2021/05/02 11:39:02;;;;;;;1.65;1.13;;;;;;;;;;10157210;28;20692;-65
2021/05/02 11:44:09;;;;;;;0.67;0.60;;;;;;;;;;10153819;28;20093;-67
2021/05/02 11:49:07;;;;;;;2.67;1.23;;;;;;;;;;10155801;28;20035;-64
2021/05/02 11:54:11;;;;;;;1.23;0.73;;;;;;;;;;10146594;28;20036;-66
2021/05/02 11:59:09;;;;;;;1.17;0.75;;;;;;;;;;10158090;28;20050;-65
2021/05/02 12:04:18;;;;;;;1.58;0.50;;;;;;;;;;10143264;28;20620;-66
2021/05/02 12:09:19;;;;;;;0.32;0.30;;;;;;;;;;10149451;28;20023;-65
2021/05/02 12:14:22;;;;;;;1.35;0.77;;;;;;;;;;10151568;28;20031;-64
2021/05/02 12:19:19;;;;;;;0.30;0.30;;;;;;;;;;10144846;28;20496;-64
2021/05/02 12:24:21;;;;;;;0.67;0.30;;;;;;;;;;10144067;28;20460;-65
2021/05/02 12:29:27;;;;;;;0.40;0.40;;;;;;;;;;10129597;28;20041;-65
2021/05/02 12:34:26;;;;;;;0.60;0.60;;;;;;;;;;10164033;28;20051;-66
2021/05/02 12:39:30;;;;;;;1.42;0.68;;;;;;;;;;10143920;28;20051;-65
2021/05/02 12:44:28;;;;;;;0.35;0.35;;;;;;;;;;10134953;28;20039;-66
2021/05/02 12:49:30;;;;;;;1.30;0.70;;;;;;;;;;10164422;28;20047;-66
2021/05/02 12:54:28;;;;;;;6.35;1.40;;;;;;;;;;10133167;28;20039;-69
2021/05/02 12:59:28;;;;;;;;;;;;;;;;;;10098877;28;20039;-68
2021/05/02 13:04:38;;;;;;;1.08;0.95;;;;;;;;;;10099344;28;20435;-67
2021/05/02 13:09:40;;;;;;;1.50;0.80;;;;;;;;;;10101386;28;20063;-68
2021/05/02 13:14:37;;;;;;;0.73;0.73;;;;;;;;;;10075181;28;20043;-63
2021/05/02 13:19:39;;;;;;;1.73;1.10;;;;;;;;;;10090212;28;20043;-67
2021/05/02 13:24:52;;;;;;;1.42;0.60;;;;;;;;;;10073524;28;20042;-67
2021/05/02 13:29:49;;;;;;;13.02;1.55;;;;;;;;;;10079241;28;20055;-67
2021/05/02 13:34:47;;;;;;;1.23;0.70;;;;;;;;;;10090129;28;20107;-69
2021/05/02 13:39:44;;;;;;;2.33;0.70;;;;;;;;;;10083729;28;20524;-67
2021/05/02 13:44:41;;;;;;;2.63;0.60;;;;;;;;;;10084651;28;20038;-67
2021/05/02 13:49:39;;;;;;;0.43;0.43;;;;;;;;;;10091484;28;20039;-68
2021/05/02 13:54:36;;;;;;;1.33;0.80;;;;;;;;;;10083576;28;20718;-65
2021/05/02 13:59:34;;;;;;;0.97;0.60;;;;;;;;;;10065051;28;709765;-67
2021/05/02 14:04:31;;;;;;;2.00;0.50;;;;;;;;;;10082533;28;20193;-65
2021/05/02 14:09:29;;;;;;;6.77;0.60;;;;;;;;;;10085216;28;20534;-68
2021/05/02 14:14:26;;;;;;;1.87;0.40;;;;;;;;;;10086495;28;20071;-66
2021/05/02 14:19:24;;;;;;;0.77;0.63;;;;;;;;;;10083770;28;20570;-66
2021/05/02 14:24:23;;;;;;;3.43;0.60;;;;;;;;;;10085504;28;20040;-67
2021/05/02 14:29:20;;;;;;;1.23;0.52;;;;;;;;;;10085845;28;20039;-68
2021/05/02 14:34:17;;;;;;;2.37;0.67;;;;;;;;;;10089068;28;20098;-70
2021/05/02 14:39:15;;;;;;;1.13;0.67;;;;;;;;;;10092174;28;20050;-68
2021/05/02 14:44:12;;;;;;;3.30;0.77;;;;;;;;;;10085560;28;20125;-65
2021/05/02 14:49:10;;;;;;;1.27;0.63;;;;;;;;;;10090728;28;20039;-66
2021/05/02 14:54:07;;;;;;;3.83;0.90;;;;;;;;;;10089225;28;20090;-69
2021/05/02 14:59:05;;;;;;;1.53;0.67;;;;;;;;;;10088902;28;20039;-68
2021/05/02 15:04:02;;;;;;;6.13;0.80;;;;;;;;;;10090115;28;20043;-68
2021/05/02 15:09:00;;;;;;;1.87;0.70;;;;;;;;;;10065145;28;20101;-68
2021/05/02 15:13:58;;;;;;;0.50;0.50;;;;;;;;;;10079809;28;20122;-67
2021/05/02 15:18:55;;;;;;;3.50;1.03;;;;;;;;;;10083405;28;20046;-67
2021/05/02 15:23:52;;;;;;;0.87;0.80;;;;;;;;;;10087531;28;20109;-68
2021/05/02 15:28:50;;;;;;;3.20;0.67;;;;;;;;;;10084533;28;20047;-67
2021/05/02 15:33:48;;;;;;;2.13;0.90;;;;;;;;;;10089055;28;20071;-65
2021/05/02 15:38:47;;;;;;;3.83;1.02;;;;;;;;;;10070168;28;20249;-66
2021/05/02 15:43:49;;;;;;;1.80;0.77;;;;;;;;;;10086249;28;20049;-66
2021/05/02 15:48:47;;;;;;;2.47;0.80;;;;;;;;;;10085127;28;20058;-67
2021/05/02 15:53:44;;;;;;;1.20;1.07;;;;;;;;;;10090014;28;20050;-65
2021/05/02 15:58:42;;;;;;;0.87;0.60;;;;;;;;;;10077282;28;20101;-66
2021/05/02 16:03:39;;;;;;;0.90;0.67;;;;;;;;;;10064843;28;20054;-66
2021/05/02 16:08:37;;;;;;;1.77;0.67;;;;;;;;;;10069894;28;20054;-66
2021/05/02 16:13:34;;;;;;;2.20;0.70;;;;;;;;;;10085393;28;20509;-65
2021/05/02 16:18:32;;;;;;;1.40;0.53;;;;;;;;;;10090325;28;20027;-63
2021/05/02 16:23:30;;;;;;;4.17;0.80;;;;;;;;;;10081894;28;20257;-67
2021/05/02 16:28:27;;;;;;;3.70;0.70;;;;;;;;;;10088238;28;20035;-65
2021/05/02 16:33:25;;;;;;;4.93;1.23;;;;;;;;;;10088012;28;21246;-66
2021/05/02 16:38:22;;;;;;;2.80;0.67;;;;;;;;;;10095187;28;20088;-66
2021/05/02 16:43:20;;;;;;;3.77;0.80;;;;;;;;;;10093680;28;20023;-66
2021/05/02 16:48:17;;;;;;;2.10;0.80;;;;;;;;;;10096071;28;20027;-66
2021/05/02 16:53:15;;;;;;;6.80;0.97;;;;;;;;;;10093950;28;20071;-65
2021/05/02 16:58:12;;;;;;;5.77;0.70;;;;;;;;;;10098421;28;20040;-66
2021/05/02 17:03:10;;;;;;;1.43;0.77;;;;;;;;;;10095682;28;20093;-67
2021/05/02 17:08:07;;;;;;;2.90;1.30;;;;;;;;;;10091014;28;20322;-67
2021/05/02 17:13:05;;;;;;;2.10;0.73;;;;;;;;;;10086065;28;20158;-64
2021/05/02 17:18:03;;;;;;;2.97;0.97;;;;;;;;;;10088523;28;20559;-65
2021/05/02 17:23:00;;;;;;;3.40;0.80;;;;;;;;;;10088192;28;20090;-66
2021/05/02 17:27:58;;;;;;;6.40;1.20;;;;;;;;;;10072927;28;20094;-66
2021/05/02 17:32:55;;;;;;;3.33;0.70;;;;;;;;;;10090538;28;20043;-66
2021/05/02 17:37:53;;;;;;;3.67;1.33;;;;;;;;;;10071241;28;20118;-67
2021/05/02 17:42:50;;;;;;;2.37;0.77;;;;;;;;;;10085856;28;20046;-66
2021/05/02 17:47:48;;;;;;;1.10;0.60;;;;;;;;;;10089997;28;20054;-66
2021/05/02 17:52:46;;;;;;;1.57;0.70;;;;;;;;;;10017300;28;20979;-68
2021/05/02 17:57:45;;;;;;;4.47;1.05;;;;;;;;;;10019320;28;20043;-68
2021/05/02 18:02:44;;;;;;;1.20;0.40;;;;;;;;;;10025602;28;20047;-66
2021/05/02 18:07:42;;;;;;;5.10;0.82;;;;;;;;;;10028834;28;20447;-66
2021/05/02 18:12:39;;;;;;;0.57;0.30;;;;;;;;;;10025076;28;20114;-66
2021/05/02 18:17:37;;;;;;;4.10;0.50;;;;;;;;;;10022160;28;20547;-65
2021/05/02 18:22:35;;;;;;;1.10;0.43;;;;;;;;;;10000268;28;21013;-67
2021/05/02 18:27:33;;;;;;;3.13;0.68;;;;;;;;;;10022628;28;21101;-66
2021/05/02 18:32:30;;;;;;;0.97;0.20;;;;;;;;;;10007514;28;20593;-67
2021/05/02 18:37:27;;;;;;;2.37;0.70;;;;;;;;;;10035225;28;20767;-66
2021/05/02 18:42:25;;;;;;;1.30;0.60;;;;;;;;;;10018342;28;20368;-66
2021/05/02 18:47:23;;;;;;;1.13;0.40;;;;;;;;;;10016761;28;20602;-66
2021/05/02 18:52:20;;;;;;;2.77;0.50;;;;;;;;;;10007507;28;20055;-68
2021/05/02 18:57:18;;;;;;;2.43;0.80;;;;;;;;;;10020715;28;20599;-66
2021/05/02 19:02:15;;;;;;;1.77;0.50;;;;;;;;;;10025325;28;20042;-66
2021/05/02 19:07:13;;;;;;;1.20;0.40;;;;;;;;;;10030491;28;20039;-66
2021/05/02 19:12:10;;;;;;;0.50;0.40;;;;;;;;;;10022335;28;20043;-66
2021/05/02 19:17:08;;;;;;;3.03;0.70;;;;;;;;;;10027299;28;20053;-66
2021/05/02 19:22:05;;;;;;;2.17;0.30;;;;;;;;;;10029122;28;20117;-65
2021/05/02 19:27:03;;;;;;;1.30;0.30;;;;;;;;;;9988193;28;20496;-67
2021/05/02 19:32:00;;;;;;;1.97;0.63;;;;;;;;;;10020783;28;20051;-67
2021/05/02 19:36:58;;;;;;;1.30;0.47;;;;;;;;;;10005341;28;20790;-66
2021/05/02 19:41:55;;;;;;;5.90;0.73;;;;;;;;;;10024938;28;20596;-67
2021/05/02 19:46:52;;;;;;;3.33;0.83;;;;;;;;;;10026568;28;20639;-66
2021/05/02 19:51:50;;;;;;;2.47;0.97;;;;;;;;;;10025730;28;20046;-66
2021/05/02 19:56:47;;;;;;;3.53;0.77;;;;;;;;;;10008922;28;20079;-67
2021/05/02 20:01:45;;;;;;;2.33;0.67;;;;;;;;;;10006107;28;20043;-66
2021/05/02 20:06:42;;;;;;;0.40;0.40;;;;;;;;;;10017783;28;20047;-66
2021/05/02 20:11:40;;;;;;;3.20;0.40;;;;;;;;;;10008501;28;20331;-67
2021/05/02 20:16:38;;;;;;;0.50;0.50;;;;;;;;;;10003688;28;20039;-66
2021/05/02 20:21:36;;;;;;;0.97;0.63;;;;;;;;;;9999832;28;20133;-64
2021/05/02 20:26:34;;;;;;;2.10;0.50;;;;;;;;;;10021561;28;21325;-66
2021/05/02 20:31:31;;;;;;;0.47;0.43;;;;;;;;;;10023656;28;20043;-66
2021/05/02 20:36:29;;;;;;;0.87;0.50;;;;;;;;;;10008047;28;20586;-65
2021/05/02 20:41:28;;;;;;;3.80;0.70;;;;;;;;;;10031551;28;20046;-67
2021/05/02 20:46:26;;;;;;;0.55;0.52;;;;;;;;;;10024218;28;20740;-68
2021/05/02 20:51:24;;;;;;;0.83;0.53;;;;;;;;;;10029521;28;21101;-67
2021/05/02 20:56:22;;;;;;;1.70;0.73;;;;;;;;;;10024801;28;20197;-67
2021/05/02 21:01:19;;;;;;;1.17;0.52;;;;;;;;;;10014231;28;21055;-67
2021/05/02 21:06:17;;;;;;;0.40;0.40;;;;;;;;;;10026513;28;20129;-67
2021/05/02 21:11:14;;;;;;;0.33;0.30;;;;;;;;;;10017715;28;20126;-69
2021/05/02 21:16:12;;;;;;;0.83;0.60;;;;;;;;;;10028565;28;20043;-67
2021/05/02 21:21:09;;;;;;;1.37;0.70;;;;;;;;;;10028993;28;20041;-68
2021/05/02 21:26:07;;;;;;;1.40;0.60;;;;;;;;;;10027397;28;20134;-67
2021/05/02 21:31:05;;;;;;;1.43;0.30;;;;;;;;;;10031589;28;20054;-66
2021/05/02 21:36:03;;;;;;;0.20;0.20;;;;;;;;;;10010825;28;20879;-68
2021/05/02 21:41:01;;;;;;;2.10;0.50;;;;;;;;;;10007579;28;20510;-68
2021/05/02 21:45:58;;;;;;;1.20;0.73;;;;;;;;;;10021270;28;20043;-67
2021/05/02 21:50:56;;;;;;;2.90;1.23;;;;;;;;;;10003573;28;21071;-67
2021/05/02 21:55:55;;;;;;;0.30;0.30;;;;;;;;;;10006342;28;20296;-69
2021/05/02 22:00:57;;;;;;;0.63;0.28;;;;;;;;;;9992652;28;21001;-66
2021/05/02 22:05:55;;;;;;;2.17;0.65;;;;;;;;;;10005552;28;20188;-67
2021/05/02 22:10:53;;;;;;;2.88;0.82;;;;;;;;;;9992811;28;20054;-66
2021/05/02 22:15:52;;;;;;;0.45;0.45;;;;;;;;;;9984809;28;20396;-69
2021/05/02 22:20:49;;;;;;;;;;;;;;;;;;9969174;28;20197;-66
2021/05/02 22:25:47;;;;;;;0.65;0.50;;;;;;;;;;9987218;28;20400;-65
2021/05/02 22:30:45;;;;;;;2.90;0.40;;;;;;;;;;9989868;28;20042;-69
2021/05/02 22:35:43;;;;;;;2.53;0.70;;;;;;;;;;9989402;28;20173;-69
2021/05/02 22:40:42;;;;;;;1.07;0.57;;;;;;;;;;9993712;28;20597;-67
2021/05/02 22:45:40;;;;;;;0.98;0.60;;;;;;;;;;10008018;28;21004;-67
2021/05/02 22:50:39;;;;;;;0.50;0.33;;;;;;;;;;10024702;28;20043;-67
2021/05/02 22:55:37;;;;;;;1.45;0.32;;;;;;;;;;10142275;28;20097;-67
2021/05/02 23:00:36;;;;;;;0.30;0.30;;;;;;;;;;10163128;28;20035;-66
2021/05/02 23:05:34;;;;;;;0.75;0.57;;;;;;;;;;10160495;28;20047;-68
2021/05/02 23:10:32;;;;;;;2.10;0.55;;;;;;;;;;10159462;28;20046;-66
2021/05/02 23:15:30;;;;;;;1.03;0.50;;;;;;;;;;10132395;28;20038;-67
2021/05/02 23:20:28;;;;;;;2.83;0.50;;;;;;;;;;10154289;28;20078;-65
2021/05/02 23:25:25;;;;;;;2.53;0.50;;;;;;;;;;10155564;28;20843;-66
2021/05/02 23:30:23;;;;;;;1.10;0.70;;;;;;;;;;10159170;28;20137;-66
2021/05/02 23:35:20;;;;;;;0.33;0.33;;;;;;;;;;10160438;28;20046;-67
2021/05/02 23:40:18;;;;;;;9.80;0.73;;;;;;;;;;10154449;28;20118;-67
2021/05/02 23:45:18;;;;;;;0.67;0.57;;;;;;;;;;10157040;28;20035;-67
2021/05/02 23:50:15;;;;;;;0.40;0.40;;;;;;;;;;10154449;28;20031;-68
2021/05/02 23:55:13;;;;;;;0.57;0.47;;;;;;;;;;10163553;28;20042;-68
